sensor_id;sensor_type;location;lat;lon;timestamp;temperature;humidity
29803;DHT22;16702;50.898;4.662;2023-05-16T00:01:13;11.80;99.90
29803;DHT22;16702;50.898;4.662;2023-05-16T00:03:47;11.80;99.90
29803;DHT22;16702;50.898;4.662;2023-05-16T00:06:17;11.80;99.90
29803;DHT22;16702;50.898;4.662;2023-05-16T00:08:49;11.80;99.90
29803;DHT22;16702;50.898;4.662;2023-05-16T00:11:19;11.70;99.90
29803;DHT22;16702;50.898;4.662;2023-05-16T00:13:49;11.80;99.90
29803;DHT22;16702;50.898;4.662;2023-05-16T00:16:20;11.80;99.90
29803;DHT22;16702;50.898;4.662;2023-05-16T00:18:55;11.80;99.90
29803;DHT22;16702;50.898;4.662;2023-05-16T00:21:27;11.70;99.90
29803;DHT22;16702;50.898;4.662;2023-05-16T00:23:58;11.60;99.90
29803;DHT22;16702;50.898;4.662;2023-05-16T00:26:28;11.70;99.90
29803;DHT22;16702;50.898;4.662;2023-05-16T00:28:59;11.70;99.90
29803;DHT22;16702;50.898;4.662;2023-05-16T00:31:30;11.70;99.90
29803;DHT22;16702;50.898;4.662;2023-05-16T00:34:03;11.70;99.90
29803;DHT22;16702;50.898;4.662;2023-05-16T00:36:33;11.60;99.90
29803;DHT22;16702;50.898;4.662;2023-05-16T00:39:04;11.60;99.90
29803;DHT22;16702;50.898;4.662;2023-05-16T00:41:35;11.60;99.90
29803;DHT22;16702;50.898;4.662;2023-05-16T00:44:05;11.40;99.90
29803;DHT22;16702;50.898;4.662;2023-05-16T00:46:36;11.50;99.90
29803;DHT22;16702;50.898;4.662;2023-05-16T00:49:10;11.40;99.90
29803;DHT22;16702;50.898;4.662;2023-05-16T00:51:41;11.40;99.90
29803;DHT22;16702;50.898;4.662;2023-05-16T00:54:11;11.40;99.90
29803;DHT22;16702;50.898;4.662;2023-05-16T00:56:42;11.40;99.90
29803;DHT22;16702;50.898;4.662;2023-05-16T00:59:13;11.30;99.90
29803;DHT22;16702;50.898;4.662;2023-05-16T01:01:45;11.30;99.90
29803;DHT22;16702;50.898;4.662;2023-05-16T01:04:20;11.30;99.90
29803;DHT22;16702;50.898;4.662;2023-05-16T01:06:50;11.30;99.90
29803;DHT22;16702;50.898;4.662;2023-05-16T01:09:21;11.40;99.90
29803;DHT22;16702;50.898;4.662;2023-05-16T01:11:58;11.40;99.90
29803;DHT22;16702;50.898;4.662;2023-05-16T01:14:37;11.40;99.90
29803;DHT22;16702;50.898;4.662;2023-05-16T01:17:20;11.40;99.90
29803;DHT22;16702;50.898;4.662;2023-05-16T01:20:06;11.40;99.90
29803;DHT22;16702;50.898;4.662;2023-05-16T01:22:57;11.40;99.90
29803;DHT22;16702;50.898;4.662;2023-05-16T01:25:42;11.40;99.90
29803;DHT22;16702;50.898;4.662;2023-05-16T01:28:18;11.40;99.90
29803;DHT22;16702;50.898;4.662;2023-05-16T01:30:50;11.40;99.90
29803;DHT22;16702;50.898;4.662;2023-05-16T01:33:22;11.20;99.90
29803;DHT22;16702;50.898;4.662;2023-05-16T01:35:57;11.20;99.90
29803;DHT22;16702;50.898;4.662;2023-05-16T01:38:35;11.30;99.90
29803;DHT22;16702;50.898;4.662;2023-05-16T01:41:10;11.30;99.90
29803;DHT22;16702;50.898;4.662;2023-05-16T01:43:48;11.30;99.90
29803;DHT22;16702;50.898;4.662;2023-05-16T01:46:23;11.30;99.90
29803;DHT22;16702;50.898;4.662;2023-05-16T01:49:01;11.30;99.90
29803;DHT22;16702;50.898;4.662;2023-05-16T01:51:36;11.30;99.90
29803;DHT22;16702;50.898;4.662;2023-05-16T01:54:11;11.20;99.90
29803;DHT22;16702;50.898;4.662;2023-05-16T01:56:46;11.20;99.90
29803;DHT22;16702;50.898;4.662;2023-05-16T01:59:23;11.10;99.90
29803;DHT22;16702;50.898;4.662;2023-05-16T02:01:55;11.10;99.90
29803;DHT22;16702;50.898;4.662;2023-05-16T02:04:26;11.20;99.90
29803;DHT22;16702;50.898;4.662;2023-05-16T02:06:57;11.20;99.90
29803;DHT22;16702;50.898;4.662;2023-05-16T02:09:28;11.10;99.90
29803;DHT22;16702;50.898;4.662;2023-05-16T02:11:58;11.10;99.90
29803;DHT22;16702;50.898;4.662;2023-05-16T02:14:33;11.10;99.90
29803;DHT22;16702;50.898;4.662;2023-05-16T02:17:04;11.10;99.90
29803;DHT22;16702;50.898;4.662;2023-05-16T02:19:35;11.10;99.90
29803;DHT22;16702;50.898;4.662;2023-05-16T02:22:06;11.10;99.90
29803;DHT22;16702;50.898;4.662;2023-05-16T02:24:36;11.10;99.90
29803;DHT22;16702;50.898;4.662;2023-05-16T02:27:07;11.10;99.90
29803;DHT22;16702;50.898;4.662;2023-05-16T02:29:40;11.10;99.90
29803;DHT22;16702;50.898;4.662;2023-05-16T02:32:10;11.10;99.90
29803;DHT22;16702;50.898;4.662;2023-05-16T02:34:40;11.00;99.90
29803;DHT22;16702;50.898;4.662;2023-05-16T02:37:11;10.90;99.90
29803;DHT22;16702;50.898;4.662;2023-05-16T02:39:41;10.90;99.90
29803;DHT22;16702;50.898;4.662;2023-05-16T02:42:12;11.00;99.90
29803;DHT22;16702;50.898;4.662;2023-05-16T02:44:46;11.00;99.90
29803;DHT22;16702;50.898;4.662;2023-05-16T02:47:17;11.10;99.90
29803;DHT22;16702;50.898;4.662;2023-05-16T02:49:48;11.00;99.90
29803;DHT22;16702;50.898;4.662;2023-05-16T02:52:18;10.90;99.90
29803;DHT22;16702;50.898;4.662;2023-05-16T02:54:49;11.00;99.90
29803;DHT22;16702;50.898;4.662;2023-05-16T02:57:22;11.00;99.90
29803;DHT22;16702;50.898;4.662;2023-05-16T02:59:55;11.00;99.90
29803;DHT22;16702;50.898;4.662;2023-05-16T03:02:26;11.00;99.90
29803;DHT22;16702;50.898;4.662;2023-05-16T03:04:56;11.00;99.90
29803;DHT22;16702;50.898;4.662;2023-05-16T03:07:27;11.00;99.90
29803;DHT22;16702;50.898;4.662;2023-05-16T03:09:57;10.90;99.90
29803;DHT22;16702;50.898;4.662;2023-05-16T03:12:28;10.80;99.90
29803;DHT22;16702;50.898;4.662;2023-05-16T03:15:01;10.80;99.90
29803;DHT22;16702;50.898;4.662;2023-05-16T03:17:32;10.80;99.90
29803;DHT22;16702;50.898;4.662;2023-05-16T03:20:03;10.90;99.90
29803;DHT22;16702;50.898;4.662;2023-05-16T03:22:35;10.80;99.90
29803;DHT22;16702;50.898;4.662;2023-05-16T03:25:07;10.80;99.90
29803;DHT22;16702;50.898;4.662;2023-05-16T03:27:40;10.70;99.90
29803;DHT22;16702;50.898;4.662;2023-05-16T03:30:13;10.70;99.90
29803;DHT22;16702;50.898;4.662;2023-05-16T03:32:45;10.70;99.90
29803;DHT22;16702;50.898;4.662;2023-05-16T03:35:16;10.80;99.90
29803;DHT22;16702;50.898;4.662;2023-05-16T03:37:46;10.80;99.90
29803;DHT22;16702;50.898;4.662;2023-05-16T03:40:17;10.80;99.90
29803;DHT22;16702;50.898;4.662;2023-05-16T03:42:48;10.90;99.90
29803;DHT22;16702;50.898;4.662;2023-05-16T03:45:21;10.80;99.90
29803;DHT22;16702;50.898;4.662;2023-05-16T03:47:52;10.70;99.90
29803;DHT22;16702;50.898;4.662;2023-05-16T03:50:23;10.70;99.90
29803;DHT22;16702;50.898;4.662;2023-05-16T03:52:53;10.80;99.90
29803;DHT22;16702;50.898;4.662;2023-05-16T03:55:24;10.70;99.90
29803;DHT22;16702;50.898;4.662;2023-05-16T03:57:55;10.70;99.90
29803;DHT22;16702;50.898;4.662;2023-05-16T04:00:28;10.70;99.90
29803;DHT22;16702;50.898;4.662;2023-05-16T04:03:00;10.70;99.90
29803;DHT22;16702;50.898;4.662;2023-05-16T04:05:31;10.70;99.90
29803;DHT22;16702;50.898;4.662;2023-05-16T04:08:02;10.70;99.90
29803;DHT22;16702;50.898;4.662;2023-05-16T04:10:32;10.80;99.90
29803;DHT22;16702;50.898;4.662;2023-05-16T04:13:03;10.60;99.90
29803;DHT22;16702;50.898;4.662;2023-05-16T04:15:36;10.70;99.90
29803;DHT22;16702;50.898;4.662;2023-05-16T04:18:07;10.70;99.90
29803;DHT22;16702;50.898;4.662;2023-05-16T04:20:37;10.70;99.90
29803;DHT22;16702;50.898;4.662;2023-05-16T04:23:08;10.70;99.90
29803;DHT22;16702;50.898;4.662;2023-05-16T04:25:40;10.70;99.90
29803;DHT22;16702;50.898;4.662;2023-05-16T04:28:10;10.70;99.90
29803;DHT22;16702;50.898;4.662;2023-05-16T04:30:43;10.70;99.90
29803;DHT22;16702;50.898;4.662;2023-05-16T04:33:15;10.70;99.90
29803;DHT22;16702;50.898;4.662;2023-05-16T04:35:45;10.70;99.90
29803;DHT22;16702;50.898;4.662;2023-05-16T04:38:16;10.70;99.90
29803;DHT22;16702;50.898;4.662;2023-05-16T04:40:46;10.70;99.90
29803;DHT22;16702;50.898;4.662;2023-05-16T04:43:17;10.70;99.90
29803;DHT22;16702;50.898;4.662;2023-05-16T04:45:50;10.70;99.90
29803;DHT22;16702;50.898;4.662;2023-05-16T04:48:21;10.70;99.90
29803;DHT22;16702;50.898;4.662;2023-05-16T04:50:51;10.70;99.90
29803;DHT22;16702;50.898;4.662;2023-05-16T04:53:21;10.60;99.90
29803;DHT22;16702;50.898;4.662;2023-05-16T04:55:52;10.60;99.90
29803;DHT22;16702;50.898;4.662;2023-05-16T04:58:23;10.70;99.90
29803;DHT22;16702;50.898;4.662;2023-05-16T05:00:56;10.70;99.90
29803;DHT22;16702;50.898;4.662;2023-05-16T05:03:28;10.80;99.90
29803;DHT22;16702;50.898;4.662;2023-05-16T05:05:58;10.80;99.90
29803;DHT22;16702;50.898;4.662;2023-05-16T05:08:28;10.80;99.90
29803;DHT22;16702;50.898;4.662;2023-05-16T05:10:59;10.80;99.90
29803;DHT22;16702;50.898;4.662;2023-05-16T05:13:29;10.90;99.90
29803;DHT22;16702;50.898;4.662;2023-05-16T05:16:03;10.70;99.90
29803;DHT22;16702;50.898;4.662;2023-05-16T05:18:33;10.90;99.90
29803;DHT22;16702;50.898;4.662;2023-05-16T05:21:04;10.90;99.90
29803;DHT22;16702;50.898;4.662;2023-05-16T05:23:34;10.80;99.90
29803;DHT22;16702;50.898;4.662;2023-05-16T05:26:05;10.90;99.90
29803;DHT22;16702;50.898;4.662;2023-05-16T05:28:35;10.80;99.90
29803;DHT22;16702;50.898;4.662;2023-05-16T05:31:14;10.70;99.90
29803;DHT22;16702;50.898;4.662;2023-05-16T05:33:44;10.80;99.90
29803;DHT22;16702;50.898;4.662;2023-05-16T05:36:15;10.80;99.90
29803;DHT22;16702;50.898;4.662;2023-05-16T05:38:46;10.90;99.90
29803;DHT22;16702;50.898;4.662;2023-05-16T05:41:16;10.90;99.90
29803;DHT22;16702;50.898;4.662;2023-05-16T05:43:48;11.00;99.90
29803;DHT22;16702;50.898;4.662;2023-05-16T05:46:21;11.00;99.90
29803;DHT22;16702;50.898;4.662;2023-05-16T05:48:52;10.90;99.90
29803;DHT22;16702;50.898;4.662;2023-05-16T05:51:22;11.00;99.90
29803;DHT22;16702;50.898;4.662;2023-05-16T05:53:53;10.90;99.90
29803;DHT22;16702;50.898;4.662;2023-05-16T05:56:24;11.00;99.90
29803;DHT22;16702;50.898;4.662;2023-05-16T05:58:54;11.10;99.90
29803;DHT22;16702;50.898;4.662;2023-05-16T06:01:28;11.10;99.90
29803;DHT22;16702;50.898;4.662;2023-05-16T06:03:58;11.00;99.90
29803;DHT22;16702;50.898;4.662;2023-05-16T06:06:28;11.20;99.90
29803;DHT22;16702;50.898;4.662;2023-05-16T06:08:59;11.20;99.90
29803;DHT22;16702;50.898;4.662;2023-05-16T06:11:29;11.20;99.90
29803;DHT22;16702;50.898;4.662;2023-05-16T06:14:00;11.20;99.90
29803;DHT22;16702;50.898;4.662;2023-05-16T06:16:33;11.30;99.90
29803;DHT22;16702;50.898;4.662;2023-05-16T06:19:03;11.30;99.90
29803;DHT22;16702;50.898;4.662;2023-05-16T06:21:34;11.30;99.90
29803;DHT22;16702;50.898;4.662;2023-05-16T06:24:04;11.30;99.90
29803;DHT22;16702;50.898;4.662;2023-05-16T06:26:35;11.30;99.90
29803;DHT22;16702;50.898;4.662;2023-05-16T06:29:05;11.30;99.90
29803;DHT22;16702;50.898;4.662;2023-05-16T06:31:39;11.40;99.90
29803;DHT22;16702;50.898;4.662;2023-05-16T06:34:09;11.50;99.90
29803;DHT22;16702;50.898;4.662;2023-05-16T06:36:40;11.60;99.90
29803;DHT22;16702;50.898;4.662;2023-05-16T06:39:11;11.50;99.90
29803;DHT22;16702;50.898;4.662;2023-05-16T06:41:41;11.60;99.90
29803;DHT22;16702;50.898;4.662;2023-05-16T06:44:15;11.60;99.90
29803;DHT22;16702;50.898;4.662;2023-05-16T06:46:48;11.60;99.90
29803;DHT22;16702;50.898;4.662;2023-05-16T06:49:19;11.60;99.90
29803;DHT22;16702;50.898;4.662;2023-05-16T06:51:49;11.70;99.90
29803;DHT22;16702;50.898;4.662;2023-05-16T06:54:19;11.70;99.90
29803;DHT22;16702;50.898;4.662;2023-05-16T06:56:50;11.80;99.90
29803;DHT22;16702;50.898;4.662;2023-05-16T06:59:20;11.90;99.90
29803;DHT22;16702;50.898;4.662;2023-05-16T07:01:56;12.00;99.90
29803;DHT22;16702;50.898;4.662;2023-05-16T07:04:28;12.00;99.90
29803;DHT22;16702;50.898;4.662;2023-05-16T07:06:59;12.00;99.90
29803;DHT22;16702;50.898;4.662;2023-05-16T07:09:29;12.10;99.90
29803;DHT22;16702;50.898;4.662;2023-05-16T07:12:00;12.10;99.90
29803;DHT22;16702;50.898;4.662;2023-05-16T07:14:31;12.20;99.90
29803;DHT22;16702;50.898;4.662;2023-05-16T07:17:04;12.10;99.90
29803;DHT22;16702;50.898;4.662;2023-05-16T07:19:34;12.00;99.90
29803;DHT22;16702;50.898;4.662;2023-05-16T07:22:05;12.00;99.90
29803;DHT22;16702;50.898;4.662;2023-05-16T07:24:38;12.10;99.90
29803;DHT22;16702;50.898;4.662;2023-05-16T07:27:09;12.10;99.90
29803;DHT22;16702;50.898;4.662;2023-05-16T07:29:40;12.10;99.90
29803;DHT22;16702;50.898;4.662;2023-05-16T07:32:13;12.20;99.90
29803;DHT22;16702;50.898;4.662;2023-05-16T07:34:44;12.10;99.90
29803;DHT22;16702;50.898;4.662;2023-05-16T07:37:14;12.20;99.90
29803;DHT22;16702;50.898;4.662;2023-05-16T07:39:46;12.30;99.90
29803;DHT22;16702;50.898;4.662;2023-05-16T07:42:17;12.20;99.90
29803;DHT22;16702;50.898;4.662;2023-05-16T07:44:47;12.30;99.90
29803;DHT22;16702;50.898;4.662;2023-05-16T07:47:21;12.50;99.90
29803;DHT22;16702;50.898;4.662;2023-05-16T07:49:51;12.50;99.90
29803;DHT22;16702;50.898;4.662;2023-05-16T07:52:22;12.40;99.90
29803;DHT22;16702;50.898;4.662;2023-05-16T07:54:52;12.30;99.90
29803;DHT22;16702;50.898;4.662;2023-05-16T07:57:23;12.30;99.90
29803;DHT22;16702;50.898;4.662;2023-05-16T07:59:54;12.40;99.90
29803;DHT22;16702;50.898;4.662;2023-05-16T08:02:27;12.40;99.90
29803;DHT22;16702;50.898;4.662;2023-05-16T08:04:58;12.50;99.90
29803;DHT22;16702;50.898;4.662;2023-05-16T08:07:29;12.60;99.90
29803;DHT22;16702;50.898;4.662;2023-05-16T08:09:59;12.70;99.90
29803;DHT22;16702;50.898;4.662;2023-05-16T08:12:30;12.90;99.90
29803;DHT22;16702;50.898;4.662;2023-05-16T08:15:00;13.00;99.90
29803;DHT22;16702;50.898;4.662;2023-05-16T08:17:36;13.10;99.90
29803;DHT22;16702;50.898;4.662;2023-05-16T08:20:07;13.10;99.90
29803;DHT22;16702;50.898;4.662;2023-05-16T08:22:38;13.30;99.90
29803;DHT22;16702;50.898;4.662;2023-05-16T08:25:09;13.30;99.90
29803;DHT22;16702;50.898;4.662;2023-05-16T08:27:39;13.40;99.90
29803;DHT22;16702;50.898;4.662;2023-05-16T08:30:12;13.40;99.90
29803;DHT22;16702;50.898;4.662;2023-05-16T08:32:45;13.40;99.90
29803;DHT22;16702;50.898;4.662;2023-05-16T08:35:16;13.40;99.90
29803;DHT22;16702;50.898;4.662;2023-05-16T08:37:47;13.20;99.90
29803;DHT22;16702;50.898;4.662;2023-05-16T08:40:18;13.10;99.90
29803;DHT22;16702;50.898;4.662;2023-05-16T08:42:49;13.00;99.90
29803;DHT22;16702;50.898;4.662;2023-05-16T08:45:20;13.00;99.90
29803;DHT22;16702;50.898;4.662;2023-05-16T08:47:54;13.10;99.90
29803;DHT22;16702;50.898;4.662;2023-05-16T08:50:25;13.20;99.90
29803;DHT22;16702;50.898;4.662;2023-05-16T08:53:04;13.10;99.90
29803;DHT22;16702;50.898;4.662;2023-05-16T08:55:35;13.10;99.90
29803;DHT22;16702;50.898;4.662;2023-05-16T08:58:07;13.30;99.90
29803;DHT22;16702;50.898;4.662;2023-05-16T09:00:38;13.50;99.90
29803;DHT22;16702;50.898;4.662;2023-05-16T09:03:12;13.80;99.90
29803;DHT22;16702;50.898;4.662;2023-05-16T09:05:43;14.00;99.90
29803;DHT22;16702;50.898;4.662;2023-05-16T09:08:14;14.00;99.90
29803;DHT22;16702;50.898;4.662;2023-05-16T09:10:45;14.20;99.90
29803;DHT22;16702;50.898;4.662;2023-05-16T09:13:15;14.10;99.90
29803;DHT22;16702;50.898;4.662;2023-05-16T09:15:46;14.30;99.90
29803;DHT22;16702;50.898;4.662;2023-05-16T09:18:39;14.20;99.90
29803;DHT22;16702;50.898;4.662;2023-05-16T09:21:11;14.30;99.90
29803;DHT22;16702;50.898;4.662;2023-05-16T09:23:42;14.20;99.90
29803;DHT22;16702;50.898;4.662;2023-05-16T09:26:13;14.40;99.90
29803;DHT22;16702;50.898;4.662;2023-05-16T09:28:44;14.50;99.90
29803;DHT22;16702;50.898;4.662;2023-05-16T09:31:22;14.40;99.90
29803;DHT22;16702;50.898;4.662;2023-05-16T09:33:56;14.30;99.90
29803;DHT22;16702;50.898;4.662;2023-05-16T09:36:27;14.20;99.90
29803;DHT22;16702;50.898;4.662;2023-05-16T09:38:57;14.10;99.90
29803;DHT22;16702;50.898;4.662;2023-05-16T09:41:31;14.00;99.90
29803;DHT22;16702;50.898;4.662;2023-05-16T09:44:03;14.00;99.90
29803;DHT22;16702;50.898;4.662;2023-05-16T09:46:35;14.20;99.90
29803;DHT22;16702;50.898;4.662;2023-05-16T09:49:11;14.30;99.90
29803;DHT22;16702;50.898;4.662;2023-05-16T09:51:42;14.40;99.90
29803;DHT22;16702;50.898;4.662;2023-05-16T09:54:12;14.40;99.90
29803;DHT22;16702;50.898;4.662;2023-05-16T09:56:49;14.40;99.90
29803;DHT22;16702;50.898;4.662;2023-05-16T09:59:21;14.30;99.90
29803;DHT22;16702;50.898;4.662;2023-05-16T10:01:52;14.70;99.90
29803;DHT22;16702;50.898;4.662;2023-05-16T10:04:26;14.70;99.90
29803;DHT22;16702;50.898;4.662;2023-05-16T10:06:56;15.00;99.90
29803;DHT22;16702;50.898;4.662;2023-05-16T10:09:32;15.00;99.90
29803;DHT22;16702;50.898;4.662;2023-05-16T10:12:04;15.00;99.90
29803;DHT22;16702;50.898;4.662;2023-05-16T10:14:36;15.30;99.90
29803;DHT22;16702;50.898;4.662;2023-05-16T10:17:11;15.50;99.90
29803;DHT22;16702;50.898;4.662;2023-05-16T10:19:46;15.60;99.90
29803;DHT22;16702;50.898;4.662;2023-05-16T10:22:18;15.20;99.90
29803;DHT22;16702;50.898;4.662;2023-05-16T10:24:55;15.10;99.90
29803;DHT22;16702;50.898;4.662;2023-05-16T10:27:28;14.90;99.90
29803;DHT22;16702;50.898;4.662;2023-05-16T10:30:01;15.00;99.90
29803;DHT22;16702;50.898;4.662;2023-05-16T10:32:32;15.10;99.90
29803;DHT22;16702;50.898;4.662;2023-05-16T10:35:08;15.40;99.90
29803;DHT22;16702;50.898;4.662;2023-05-16T10:37:39;15.50;99.90
29803;DHT22;16702;50.898;4.662;2023-05-16T10:40:12;15.60;99.90
29803;DHT22;16702;50.898;4.662;2023-05-16T10:42:53;16.00;99.90
29803;DHT22;16702;50.898;4.662;2023-05-16T10:45:27;16.00;99.90
29803;DHT22;16702;50.898;4.662;2023-05-16T10:48:03;15.70;99.90
29803;DHT22;16702;50.898;4.662;2023-05-16T10:50:40;15.60;99.90
29803;DHT22;16702;50.898;4.662;2023-05-16T10:53:15;15.50;99.90
29803;DHT22;16702;50.898;4.662;2023-05-16T10:55:50;15.50;99.90
29803;DHT22;16702;50.898;4.662;2023-05-16T10:58:42;15.90;99.90
29803;DHT22;16702;50.898;4.662;2023-05-16T11:01:18;15.90;99.90
29803;DHT22;16702;50.898;4.662;2023-05-16T11:04:07;16.10;99.90
29803;DHT22;16702;50.898;4.662;2023-05-16T11:06:50;16.10;99.90
29803;DHT22;16702;50.898;4.662;2023-05-16T11:09:24;16.30;99.90
29803;DHT22;16702;50.898;4.662;2023-05-16T11:12:00;16.50;99.90
29803;DHT22;16702;50.898;4.662;2023-05-16T11:14:38;16.50;99.90
29803;DHT22;16702;50.898;4.662;2023-05-16T11:17:11;16.60;99.90
29803;DHT22;16702;50.898;4.662;2023-05-16T11:19:43;16.70;99.90
29803;DHT22;16702;50.898;4.662;2023-05-16T11:22:27;16.80;99.90
29803;DHT22;16702;50.898;4.662;2023-05-16T11:25:00;16.70;99.90
29803;DHT22;16702;50.898;4.662;2023-05-16T11:27:34;16.40;99.90
29803;DHT22;16702;50.898;4.662;2023-05-16T11:30:11;16.20;99.90
29803;DHT22;16702;50.898;4.662;2023-05-16T11:32:43;16.00;99.90
29803;DHT22;16702;50.898;4.662;2023-05-16T11:35:16;16.00;99.90
29803;DHT22;16702;50.898;4.662;2023-05-16T11:37:50;16.20;99.90
29803;DHT22;16702;50.898;4.662;2023-05-16T11:40:21;16.50;99.90
29803;DHT22;16702;50.898;4.662;2023-05-16T11:42:51;16.50;99.90
29803;DHT22;16702;50.898;4.662;2023-05-16T11:45:23;16.80;99.90
29803;DHT22;16702;50.898;4.662;2023-05-16T11:48:01;16.40;99.90
29803;DHT22;16702;50.898;4.662;2023-05-16T11:50:33;16.30;99.90
29803;DHT22;16702;50.898;4.662;2023-05-16T11:53:07;16.30;99.90
29803;DHT22;16702;50.898;4.662;2023-05-16T11:55:40;16.40;99.90
29803;DHT22;16702;50.898;4.662;2023-05-16T11:58:15;16.50;99.90
29803;DHT22;16702;50.898;4.662;2023-05-16T12:00:49;16.40;99.90
29803;DHT22;16702;50.898;4.662;2023-05-16T12:03:20;16.40;99.90
29803;DHT22;16702;50.898;4.662;2023-05-16T12:05:52;16.60;99.90
29803;DHT22;16702;50.898;4.662;2023-05-16T12:08:26;16.70;99.90
29803;DHT22;16702;50.898;4.662;2023-05-16T12:10:57;16.50;99.90
29803;DHT22;16702;50.898;4.662;2023-05-16T12:13:28;16.30;99.90
29803;DHT22;16702;50.898;4.662;2023-05-16T12:15:59;16.50;99.90
29803;DHT22;16702;50.898;4.662;2023-05-16T12:18:29;16.50;99.90
29803;DHT22;16702;50.898;4.662;2023-05-16T12:21:00;16.50;99.90
29803;DHT22;16702;50.898;4.662;2023-05-16T12:23:34;16.60;99.90
29803;DHT22;16702;50.898;4.662;2023-05-16T12:26:05;16.50;99.90
29803;DHT22;16702;50.898;4.662;2023-05-16T12:28:36;16.40;99.90
29803;DHT22;16702;50.898;4.662;2023-05-16T12:31:11;16.40;99.90
29803;DHT22;16702;50.898;4.662;2023-05-16T12:33:58;16.80;99.90
29803;DHT22;16702;50.898;4.662;2023-05-16T12:36:32;17.00;99.90
29803;DHT22;16702;50.898;4.662;2023-05-16T12:39:05;17.10;99.90
29803;DHT22;16702;50.898;4.662;2023-05-16T12:41:39;16.90;99.90
29803;DHT22;16702;50.898;4.662;2023-05-16T12:44:12;17.20;99.90
29803;DHT22;16702;50.898;4.662;2023-05-16T12:46:45;17.20;99.90
29803;DHT22;16702;50.898;4.662;2023-05-16T12:49:19;17.30;99.90
29803;DHT22;16702;50.898;4.662;2023-05-16T12:51:51;17.30;99.90
29803;DHT22;16702;50.898;4.662;2023-05-16T12:54:24;17.00;99.90
29803;DHT22;16702;50.898;4.662;2023-05-16T12:56:55;17.00;99.90
29803;DHT22;16702;50.898;4.662;2023-05-16T12:59:26;17.00;99.90
29803;DHT22;16702;50.898;4.662;2023-05-16T13:01:57;16.90;99.90
29803;DHT22;16702;50.898;4.662;2023-05-16T13:04:28;16.90;99.90
29803;DHT22;16702;50.898;4.662;2023-05-16T13:06:58;17.00;99.90
29803;DHT22;16702;50.898;4.662;2023-05-16T13:09:33;16.80;99.90
29803;DHT22;16702;50.898;4.662;2023-05-16T13:12:04;16.80;99.90
29803;DHT22;16702;50.898;4.662;2023-05-16T13:14:35;16.70;99.90
29803;DHT22;16702;50.898;4.662;2023-05-16T13:17:07;16.90;99.90
29803;DHT22;16702;50.898;4.662;2023-05-16T13:19:38;16.70;99.90
29803;DHT22;16702;50.898;4.662;2023-05-16T13:22:08;16.70;99.90
29803;DHT22;16702;50.898;4.662;2023-05-16T13:24:44;16.70;99.90
29803;DHT22;16702;50.898;4.662;2023-05-16T13:27:16;16.90;99.90
29803;DHT22;16702;50.898;4.662;2023-05-16T13:29:46;16.70;99.90
29803;DHT22;16702;50.898;4.662;2023-05-16T13:32:17;16.70;99.90
29803;DHT22;16702;50.898;4.662;2023-05-16T13:34:47;16.70;99.90
29803;DHT22;16702;50.898;4.662;2023-05-16T13:37:18;16.80;99.90
29803;DHT22;16702;50.898;4.662;2023-05-16T13:39:53;16.70;99.90
29803;DHT22;16702;50.898;4.662;2023-05-16T13:42:23;16.70;99.90
29803;DHT22;16702;50.898;4.662;2023-05-16T13:44:54;16.80;99.90
29803;DHT22;16702;50.898;4.662;2023-05-16T13:47:25;16.80;99.90
29803;DHT22;16702;50.898;4.662;2023-05-16T13:49:55;17.10;99.90
29803;DHT22;16702;50.898;4.662;2023-05-16T13:52:26;16.90;99.90
29803;DHT22;16702;50.898;4.662;2023-05-16T13:55:00;16.60;99.90
29803;DHT22;16702;50.898;4.662;2023-05-16T13:57:30;16.60;99.90
29803;DHT22;16702;50.898;4.662;2023-05-16T14:00:01;16.50;99.90
29803;DHT22;16702;50.898;4.662;2023-05-16T14:02:52;16.40;99.90
29803;DHT22;16702;50.898;4.662;2023-05-16T14:05:23;16.90;99.90
29803;DHT22;16702;50.898;4.662;2023-05-16T14:07:54;17.40;99.90
29803;DHT22;16702;50.898;4.662;2023-05-16T14:10:27;17.40;99.90
29803;DHT22;16702;50.898;4.662;2023-05-16T14:12:58;17.20;99.90
29803;DHT22;16702;50.898;4.662;2023-05-16T14:15:28;17.20;99.90
29803;DHT22;16702;50.898;4.662;2023-05-16T14:17:59;17.40;99.90
29803;DHT22;16702;50.898;4.662;2023-05-16T14:20:31;17.20;99.90
29803;DHT22;16702;50.898;4.662;2023-05-16T14:23:02;17.10;99.90
29803;DHT22;16702;50.898;4.662;2023-05-16T14:25:36;16.80;99.90
29803;DHT22;16702;50.898;4.662;2023-05-16T14:28:07;17.00;99.90
29803;DHT22;16702;50.898;4.662;2023-05-16T14:30:38;16.90;99.90
29803;DHT22;16702;50.898;4.662;2023-05-16T14:33:11;16.90;99.90
29803;DHT22;16702;50.898;4.662;2023-05-16T14:35:41;16.90;99.90
29803;DHT22;16702;50.898;4.662;2023-05-16T14:38:12;16.90;99.90
29803;DHT22;16702;50.898;4.662;2023-05-16T14:40:45;16.80;99.90
29803;DHT22;16702;50.898;4.662;2023-05-16T14:43:16;16.80;99.90
29803;DHT22;16702;50.898;4.662;2023-05-16T14:45:46;17.10;99.90
29803;DHT22;16702;50.898;4.662;2023-05-16T14:48:17;17.20;99.90
29803;DHT22;16702;50.898;4.662;2023-05-16T14:50:48;17.50;99.90
29803;DHT22;16702;50.898;4.662;2023-05-16T14:53:19;17.50;99.90
29803;DHT22;16702;50.898;4.662;2023-05-16T14:55:53;17.40;99.90
29803;DHT22;16702;50.898;4.662;2023-05-16T14:58:23;17.30;99.90
29803;DHT22;16702;50.898;4.662;2023-05-16T15:00:54;17.30;99.90
29803;DHT22;16702;50.898;4.662;2023-05-16T15:03:25;17.10;99.90
29803;DHT22;16702;50.898;4.662;2023-05-16T15:06:09;17.10;99.90
29803;DHT22;16702;50.898;4.662;2023-05-16T15:08:40;17.50;99.90
29803;DHT22;16702;50.898;4.662;2023-05-16T15:11:13;17.80;99.90
29803;DHT22;16702;50.898;4.662;2023-05-16T15:13:44;17.60;99.90
29803;DHT22;16702;50.898;4.662;2023-05-16T15:16:14;17.30;99.90
29803;DHT22;16702;50.898;4.662;2023-05-16T15:18:46;17.30;99.90
29803;DHT22;16702;50.898;4.662;2023-05-16T15:21:16;17.10;99.90
29803;DHT22;16702;50.898;4.662;2023-05-16T15:23:47;17.20;99.90
29803;DHT22;16702;50.898;4.662;2023-05-16T15:26:20;17.10;99.90
29803;DHT22;16702;50.898;4.662;2023-05-16T15:28:51;17.20;99.90
29803;DHT22;16702;50.898;4.662;2023-05-16T15:31:22;17.10;99.90
29803;DHT22;16702;50.898;4.662;2023-05-16T15:33:54;17.20;99.90
29803;DHT22;16702;50.898;4.662;2023-05-16T15:36:25;17.10;99.90
29803;DHT22;16702;50.898;4.662;2023-05-16T15:38:56;17.00;99.90
29803;DHT22;16702;50.898;4.662;2023-05-16T15:41:29;16.90;99.90
29803;DHT22;16702;50.898;4.662;2023-05-16T15:44:20;16.90;99.90
29803;DHT22;16702;50.898;4.662;2023-05-16T15:46:50;16.80;99.90
29803;DHT22;16702;50.898;4.662;2023-05-16T15:49:21;16.80;99.90
29803;DHT22;16702;50.898;4.662;2023-05-16T15:51:53;16.70;99.90
29803;DHT22;16702;50.898;4.662;2023-05-16T15:54:24;16.80;99.90
29803;DHT22;16702;50.898;4.662;2023-05-16T15:56:57;16.80;99.90
29803;DHT22;16702;50.898;4.662;2023-05-16T15:59:28;16.80;99.90
29803;DHT22;16702;50.898;4.662;2023-05-16T16:01:59;16.70;99.90